ESNU/UME METAR and TAF weather

Enter ICAO airport designator
Station Type Date Time Source
ESNU METAR 2021/04/13 22:50 UTC NOAA

ESNU 132250Z 26005KT CAVOK M02/M03 Q1016


Station Type Date Time Source
ESNU Decoded METAR 2021/04/13 22:50 UTC NOAA

Umea Flygplats, Sweden (ESNU) 63-48N 020-17E 14M
Apr 13, 2021 - 06:50 PM EDT / 2021.04.13 2250 UTC
Wind: from the W (260 degrees) at 6 MPH (5 KT):0
Visibility: greater than 7 mile(s):0
Temperature: 28 F (-2 C)
Windchill: 21 F (-6 C):1
Dew Point: 26 F (-3 C)
Relative Humidity: 92%
Pressure (altimeter): 30.00 in. Hg (1016 hPa)
ob: ESNU 132250Z 26005KT CAVOK M02/M03 Q1016
cycle: 23

Station Type Date Time Source
ESNU TAF 2019/10/24 00:55 UTC NOAA

TAF
AMD ESNU 242348Z 2500/2524 16003KT 0200 FG VV002 PROB40 2500/2509 8000 -RA BKN005

Example: see airport list